Terminal Aerodrome Forecast
Issued by NWS

Home | Current Version | Previous Version | Text Only | Print | Product List | Glossary On
Versions: 1 2 3 4 5 6 7 8 9 10 11 12
000
FTUS42 KTBW 191120
TAFLAL
TAF
KLAL 191120Z 1912/2012 03003KT P6SM FEW015 BKN090
     FM191500 04006KT P6SM FEW030 SCT090
     FM191900 05004KT P6SM BKN050
     FM200300 VRB03KT P6SM FEW050 FEW250=

USA.gov is the U.S. government's official web portal to all federal, state and local government web resources and services.